Time;durP1;ratioP1;P1;durP2;ratioP2;P2;SDS_P1;SDS_P2;PMS_P1;PMS_P2;Temp;Humidity;BMP_temperature;BMP_pressure;BME280_temperature;BME280_humidity;BME280_pressure;Samples;Min_cycle;Max_cycle;Signal;HPM_P1;HPM_P2
2020/12/27 05:19:10;;;;;;;1.20;1.10;;;0.10;99.90;;;;;;5366762;23;20060;-70
2020/12/27 05:21:38;;;;;;;2.90;1.73;;;0.10;99.90;;;;;;4899572;29;20365;-70
2020/12/27 05:24:05;;;;;;;2.08;1.55;;;0.10;99.90;;;;;;4898269;29;20407;-71
2020/12/27 05:26:32;;;;;;;2.70;1.60;;;0.10;99.90;;;;;;4899602;29;20021;-71
2020/12/27 05:28:58;;;;;;;1.75;1.45;;;0.20;99.90;;;;;;4899496;29;20083;-70
2020/12/27 05:31:33;;;;;;;1.83;1.60;;;0.20;99.90;;;;;;4899349;29;20119;-72
2020/12/27 05:33:58;;;;;;;1.73;1.42;;;0.20;99.90;;;;;;4899756;29;20323;-74
2020/12/27 05:36:26;;;;;;;1.50;1.30;;;0.20;99.90;;;;;;4899083;29;20055;-75
2020/12/27 05:38:54;;;;;;;2.20;1.50;;;0.20;99.90;;;;;;4899726;29;20036;-80
2020/12/27 05:41:31;;;;;;;2.40;1.23;;;0.20;99.90;;;;;;4899531;29;20133;-83
2020/12/27 05:44:04;;;;;;;2.40;1.70;;;0.20;99.90;;;;;;4899259;29;20036;-74
2020/12/27 05:46:31;;;;;;;3.28;2.10;;;0.30;99.90;;;;;;4899513;29;20029;-76
2020/12/27 05:48:58;;;;;;;2.35;1.60;;;0.30;99.90;;;;;;4899371;29;20113;-79
2020/12/27 05:51:24;;;;;;;1.95;1.60;;;0.30;99.90;;;;;;4899072;29;20523;-79
2020/12/27 05:53:52;;;;;;;1.20;1.10;;;0.20;99.90;;;;;;4899121;29;20037;-78
2020/12/27 05:56:19;;;;;;;2.00;1.70;;;0.30;99.90;;;;;;4899165;29;20527;-77
2020/12/27 05:58:46;;;;;;;3.25;1.75;;;0.20;99.90;;;;;;4898670;29;20052;-75
2020/12/27 06:01:25;;;;;;;1.88;1.35;;;0.20;99.90;;;;;;4899103;29;20084;-74
2020/12/27 06:03:57;;;;;;;2.28;1.80;;;0.20;99.90;;;;;;4898178;29;20039;-74
2020/12/27 06:07:00;;;;;;;2.63;2.05;;;0.20;99.90;;;;;;4898512;29;20113;-74
2020/12/27 06:09:47;;;;;;;2.95;1.92;;;0.20;99.90;;;;;;4875419;29;20033;-73
2020/12/27 06:12:13;;;;;;;2.15;1.80;;;0.20;99.90;;;;;;4895899;29;20060;-77
2020/12/27 06:14:43;;;;;;;2.67;1.60;;;0.20;99.90;;;;;;4898176;29;20436;-76
2020/12/27 06:17:10;;;;;;;2.80;1.80;;;0.20;99.90;;;;;;4898601;29;20099;-83
2020/12/27 06:19:44;;;;;;;2.65;2.03;;;0.20;99.90;;;;;;4882133;29;20041;-82
2020/12/27 06:22:10;;;;;;;6.00;2.20;;;0.20;99.90;;;;;;4879808;29;20401;-81
2020/12/27 06:24:39;;;;;;;3.10;1.85;;;0.20;99.90;;;;;;4879891;29;20041;-84
2020/12/27 06:27:06;;;;;;;3.92;2.17;;;0.20;99.90;;;;;;4880171;29;20028;-76
2020/12/27 06:29:45;;;;;;;3.35;2.30;;;0.20;99.90;;;;;;4879555;29;20033;-74
2020/12/27 06:32:15;;;;;;;3.60;2.28;;;0.20;99.90;;;;;;4880066;29;20385;-73
2020/12/27 06:34:40;;;;;;;2.95;1.70;;;0.20;99.90;;;;;;4879642;29;20025;-73
2020/12/27 06:37:07;;;;;;;4.93;1.73;;;0.20;99.90;;;;;;4879616;29;20169;-73
2020/12/27 06:39:32;;;;;;;2.40;1.88;;;0.20;99.90;;;;;;4879426;29;20032;-73
2020/12/27 06:42:10;;;;;;;3.45;2.03;;;0.20;99.90;;;;;;4879651;29;20029;-72
2020/12/27 06:44:43;;;;;;;3.33;2.15;;;0.20;99.90;;;;;;4879299;29;20088;-72
2020/12/27 06:47:10;;;;;;;4.35;2.58;;;0.20;99.90;;;;;;4879056;29;20074;-72
2020/12/27 06:49:36;;;;;;;5.00;2.40;;;0.20;99.90;;;;;;4879244;29;20029;-72
2020/12/27 06:52:21;;;;;;;3.15;2.03;;;0.20;99.90;;;;;;4879700;29;20072;-78
2020/12/27 06:54:54;;;;;;;3.47;1.98;;;0.20;99.90;;;;;;4879241;29;20036;-74
2020/12/27 06:57:38;;;;;;;4.68;1.52;;;0.90;99.90;;;;;;4879415;29;20036;-74
2020/12/27 07:00:29;;;;;;;1.83;1.67;;;0.70;99.90;;;;;;4879219;29;20084;-74
2020/12/27 07:03:09;;;;;;;4.28;2.10;;;0.50;99.90;;;;;;4879217;29;20032;-74
2020/12/27 07:05:37;;;;;;;3.00;2.00;;;0.40;99.90;;;;;;4879272;29;20032;-75
2020/12/27 07:08:04;;;;;;;5.15;2.10;;;0.40;99.90;;;;;;4879506;29;20381;-74
2020/12/27 07:10:32;;;;;;;2.55;2.05;;;0.30;99.90;;;;;;4878950;29;20033;-73
2020/12/27 07:13:15;;;;;;;2.85;1.90;;;0.30;99.90;;;;;;4879073;29;20056;-75
2020/12/27 07:15:59;;;;;;;4.72;2.40;;;0.40;99.90;;;;;;4878718;29;20028;-77
2020/12/27 07:18:27;;;;;;;3.22;2.45;;;0.40;99.90;;;;;;4877977;29;20060;-77
2020/12/27 07:20:58;;;;;;;3.90;2.45;;;0.30;99.90;;;;;;4878863;29;20030;-75
2020/12/27 07:23:30;;;;;;;3.75;2.45;;;0.30;99.90;;;;;;4879102;29;20041;-77
2020/12/27 07:26:00;;;;;;;6.40;2.45;;;0.30;99.90;;;;;;4878839;29;20104;-76
2020/12/27 07:28:27;;;;;;;2.90;2.20;;;0.30;99.90;;;;;;4876162;29;20026;-78
2020/12/27 07:30:57;;;;;;;2.70;1.95;;;0.30;99.90;;;;;;4878492;29;20025;-79
2020/12/27 07:33:29;;;;;;;5.95;2.35;;;0.30;99.90;;;;;;4878634;29;20039;-79
2020/12/27 07:36:06;;;;;;;2.58;2.22;;;0.30;99.90;;;;;;4878037;29;20033;-83
2020/12/27 07:38:59;;;;;;;3.78;2.47;;;0.30;99.90;;;;;;4879106;29;20028;-77
2020/12/27 07:41:34;;;;;;;3.72;2.15;;;0.30;99.90;;;;;;4874951;29;20477;-85
2020/12/27 07:44:00;;;;;;;5.13;2.90;;;0.30;99.90;;;;;;4878293;29;20083;-83
2020/12/27 07:46:28;;;;;;;4.82;2.78;;;0.30;99.90;;;;;;4879244;29;20462;-89
2020/12/27 07:48:54;;;;;;;3.97;2.55;;;0.40;99.90;;;;;;4879064;29;20025;-83
2020/12/27 07:51:22;;;;;;;3.92;2.45;;;0.30;99.90;;;;;;4877982;29;20503;-77
2020/12/27 07:53:53;;;;;;;4.32;2.20;;;0.40;99.90;;;;;;4878165;29;20044;-80
2020/12/27 07:56:21;;;;;;;2.72;2.10;;;0.40;99.90;;;;;;4878300;29;20025;-78
2020/12/27 07:59:01;;;;;;;4.50;2.20;;;0.40;99.90;;;;;;4877889;29;20029;-77
2020/12/27 08:01:28;;;;;;;4.20;2.72;;;0.40;99.90;;;;;;4878543;29;20077;-77
2020/12/27 08:03:59;;;;;;;3.33;2.13;;;0.40;99.90;;;;;;4878168;29;20116;-76
2020/12/27 08:06:28;;;;;;;3.28;1.98;;;0.40;99.90;;;;;;4878404;29;20613;-76
2020/12/27 08:09:08;;;;;;;2.90;1.75;;;0.40;99.90;;;;;;4878136;29;20037;-76
2020/12/27 08:11:36;;;;;;;3.10;1.83;;;0.40;99.90;;;;;;4876976;29;20025;-76
2020/12/27 08:14:04;;;;;;;2.85;2.00;;;0.40;99.90;;;;;;4878203;29;20094;-76
2020/12/27 08:16:31;;;;;;;4.50;2.17;;;0.40;99.90;;;;;;4878208;29;20085;-76
2020/12/27 08:19:14;;;;;;;2.97;1.90;;;0.40;99.90;;;;;;4877946;29;20497;-76
2020/12/27 08:21:41;;;;;;;3.28;2.40;;;0.50;99.90;;;;;;4878307;29;20101;-77
2020/12/27 08:24:12;;;;;;;2.67;1.45;;;0.50;99.90;;;;;;4878006;29;20037;-76
2020/12/27 08:26:41;;;;;;;4.18;2.20;;;0.50;99.90;;;;;;4878214;29;20481;-77
2020/12/27 08:29:27;;;;;;;2.33;1.90;;;0.50;99.90;;;;;;4878103;29;20088;-76
2020/12/27 08:32:05;;;;;;;2.72;1.85;;;0.50;99.90;;;;;;4878132;29;20080;-76
2020/12/27 08:34:32;;;;;;;3.65;1.95;;;0.50;99.90;;;;;;4878125;29;20092;-77
2020/12/27 08:36:59;;;;;;;4.40;2.15;;;0.50;99.90;;;;;;4878221;29;20060;-77
2020/12/27 08:39:45;;;;;;;3.47;2.13;;;0.50;99.90;;;;;;4877881;29;20064;-76
2020/12/27 08:42:37;;;;;;;2.50;1.85;;;0.50;99.90;;;;;;4878103;29;20033;-76
2020/12/27 08:45:12;;;;;;;4.55;1.80;;;0.60;99.90;;;;;;4877981;29;20060;-73
2020/12/27 08:47:46;;;;;;;2.45;1.70;;;0.60;99.90;;;;;;4877941;29;20414;-73
2020/12/27 08:50:20;;;;;;;2.78;1.73;;;0.60;99.90;;;;;;4877953;29;20029;-73
2020/12/27 08:52:48;;;;;;;4.25;2.00;;;0.60;99.90;;;;;;4878058;29;20036;-73
2020/12/27 08:55:15;;;;;;;2.10;1.40;;;0.60;99.90;;;;;;4877698;29;20029;-73
2020/12/27 08:57:44;;;;;;;2.38;1.73;;;0.60;99.90;;;;;;4877674;29;20692;-75
2020/12/27 09:00:12;;;;;;;2.10;1.77;;;0.60;99.90;;;;;;4876802;29;20497;-75
2020/12/27 09:02:39;;;;;;;3.45;1.77;;;0.60;99.90;;;;;;4876585;29;20611;-75
2020/12/27 09:05:07;;;;;;;3.72;1.70;;;0.60;99.90;;;;;;4877090;29;20033;-73
2020/12/27 09:07:46;;;;;;;1.85;1.40;;;0.60;99.90;;;;;;4877936;29;20043;-73
2020/12/27 09:10:17;;;;;;;1.83;1.38;;;0.60;99.90;;;;;;4878310;29;20036;-75
2020/12/27 09:13:04;;;;;;;1.90;1.48;;;0.70;99.90;;;;;;4881087;29;20025;-75
2020/12/27 09:15:32;;;;;;;2.30;1.48;;;0.60;99.90;;;;;;4881333;29;20048;-75
2020/12/27 09:18:03;;;;;;;2.08;1.25;;;0.70;99.90;;;;;;4880812;29;20073;-75
2020/12/27 09:20:31;;;;;;;1.42;1.33;;;0.70;99.90;;;;;;4880328;29;20080;-76
2020/12/27 09:22:57;;;;;;;3.72;1.52;;;0.70;99.90;;;;;;4880247;29;20061;-75
2020/12/27 09:25:24;;;;;;;3.67;1.38;;;0.70;99.90;;;;;;4880394;29;20021;-76
2020/12/27 09:27:52;;;;;;;1.88;1.50;;;0.70;99.90;;;;;;4880657;29;20061;-76
2020/12/27 09:30:25;;;;;;;3.10;1.42;;;0.70;99.90;;;;;;4881041;29;20025;-76
2020/12/27 09:32:59;;;;;;;1.40;1.10;;;0.70;99.90;;;;;;4881107;29;20029;-77
2020/12/27 09:35:25;;;;;;;1.88;1.52;;;0.70;99.90;;;;;;4880673;29;20452;-76
2020/12/27 09:37:51;;;;;;;1.73;1.13;;;0.70;99.90;;;;;;4880503;29;20092;-77
2020/12/27 09:40:18;;;;;;;2.55;1.40;;;0.80;99.90;;;;;;4880699;29;20029;-77
2020/12/27 09:42:44;;;;;;;1.13;1.02;;;0.80;99.90;;;;;;4880546;29;20389;-77
2020/12/27 09:45:24;;;;;;;1.75;1.40;;;0.80;99.90;;;;;;4880560;29;20048;-77
2020/12/27 09:47:57;;;;;;;2.50;1.27;;;0.80;99.90;;;;;;4880106;29;20040;-76
2020/12/27 09:50:33;;;;;;;1.30;1.20;;;0.80;99.90;;;;;;4880349;29;20029;-76
2020/12/27 09:52:59;;;;;;;1.48;1.30;;;0.90;99.90;;;;;;4880566;29;20210;-75
2020/12/27 09:55:25;;;;;;;1.77;1.45;;;0.90;99.90;;;;;;4880742;29;20025;-75
2020/12/27 09:57:51;;;;;;;1.77;1.30;;;0.90;99.90;;;;;;4880632;29;20500;-75
2020/12/27 10:00:17;;;;;;;2.10;1.30;;;0.90;99.90;;;;;;4880414;29;20092;-75
2020/12/27 10:02:43;;;;;;;2.53;1.40;;;0.90;99.90;;;;;;4880250;29;20033;-76
2020/12/27 10:05:09;;;;;;;3.05;1.48;;;0.90;99.90;;;;;;4880184;29;20052;-77
2020/12/27 10:07:35;;;;;;;3.10;1.23;;;1.20;99.90;;;;;;4880131;29;20505;-84
2020/12/27 10:10:04;;;;;;;0.93;0.85;;;1.40;99.90;;;;;;4879741;29;20033;-76
2020/12/27 10:12:30;;;;;;;0.68;0.68;;;1.30;99.90;;;;;;4880169;29;20044;-76
2020/12/27 10:14:56;;;;;;;2.83;0.93;;;1.20;99.90;;;;;;4880028;29;20033;-77
2020/12/27 10:17:21;;;;;;;0.90;0.90;;;1.10;99.90;;;;;;4880294;29;20037;-76
2020/12/27 10:19:47;;;;;;;1.17;1.00;;;1.10;99.90;;;;;;4879351;29;20052;-75
2020/12/27 10:22:13;;;;;;;3.45;0.95;;;1.10;99.90;;;;;;4879714;29;20108;-75
2020/12/27 10:24:40;;;;;;;30.13;5.63;;;1.10;99.90;;;;;;4878969;29;20044;-74
2020/12/27 10:27:06;;;;;;;0.80;0.80;;;1.10;99.90;;;;;;4879308;29;20078;-76
2020/12/27 10:29:33;;;;;;;1.83;1.00;;;1.10;99.90;;;;;;4877862;29;20135;-76
2020/12/27 10:32:04;;;;;;;0.90;0.90;;;1.10;99.90;;;;;;4874859;29;20032;-76
2020/12/27 10:34:30;;;;;;;0.80;0.77;;;1.10;99.90;;;;;;4879022;29;20021;-75
2020/12/27 10:36:58;;;;;;;1.60;1.00;;;1.10;99.90;;;;;;4879963;29;20033;-74
2020/12/27 10:39:24;;;;;;;1.20;0.93;;;1.10;99.90;;;;;;4880649;29;20025;-72
2020/12/27 10:41:51;;;;;;;3.47;1.00;;;1.10;99.90;;;;;;4879158;29;20112;-74
2020/12/27 10:44:17;;;;;;;1.42;0.70;;;1.20;99.90;;;;;;4879052;29;20037;-73
2020/12/27 10:46:43;;;;;;;0.50;0.50;;;1.20;99.90;;;;;;4879528;29;20089;-73
2020/12/27 10:49:10;;;;;;;1.30;0.57;;;1.20;99.90;;;;;;4879686;29;20029;-74
2020/12/27 10:51:37;;;;;;;2.35;0.93;;;1.20;99.90;;;;;;4879338;29;20028;-74
2020/12/27 10:54:04;;;;;;;0.80;0.80;;;1.20;99.90;;;;;;4879374;29;20036;-74
2020/12/27 10:56:30;;;;;;;1.30;0.90;;;1.20;99.90;;;;;;4879343;29;20142;-74
2020/12/27 10:58:56;;;;;;;0.73;0.73;;;1.20;99.90;;;;;;4879213;29;20062;-74
2020/12/27 11:01:22;;;;;;;0.70;0.70;;;1.20;99.90;;;;;;4879513;29;20033;-74
2020/12/27 11:03:47;;;;;;;0.98;0.88;;;1.20;99.90;;;;;;4879316;29;20025;-75
2020/12/27 11:06:13;;;;;;;1.95;0.80;;;1.20;99.90;;;;;;4879458;29;20037;-76
2020/12/27 11:08:39;;;;;;;2.38;1.05;;;1.20;99.90;;;;;;4879072;29;20059;-74
2020/12/27 11:11:05;;;;;;;0.90;0.70;;;1.20;99.90;;;;;;4878833;29;20033;-74
2020/12/27 11:13:31;;;;;;;2.33;0.70;;;1.20;99.90;;;;;;4876466;29;20056;-74
2020/12/27 11:15:56;;;;;;;0.93;0.88;;;1.20;99.90;;;;;;4878958;29;20025;-74
2020/12/27 11:18:22;;;;;;;1.23;1.00;;;1.20;99.90;;;;;;4878869;29;20077;-74
2020/12/27 11:20:48;;;;;;;1.15;0.80;;;1.20;99.90;;;;;;4879065;29;20029;-74
2020/12/27 11:23:14;;;;;;;2.63;0.90;;;1.20;99.90;;;;;;4878921;29;20037;-74
2020/12/27 11:25:39;;;;;;;1.08;1.00;;;1.20;99.90;;;;;;4878961;29;20093;-74
2020/12/27 11:28:05;;;;;;;2.15;0.90;;;1.20;99.90;;;;;;4877497;29;20021;-74
2020/12/27 11:30:31;;;;;;;1.30;0.68;;;1.30;99.90;;;;;;4879159;29;20044;-74
2020/12/27 11:32:57;;;;;;;1.92;0.75;;;1.30;99.90;;;;;;4878692;29;20037;-73
2020/12/27 11:35:22;;;;;;;0.80;0.80;;;1.20;99.90;;;;;;4878560;29;20108;-73
2020/12/27 11:37:51;;;;;;;0.70;0.70;;;1.20;99.90;;;;;;4878787;29;20036;-74
2020/12/27 11:40:17;;;;;;;0.80;0.73;;;1.30;99.90;;;;;;4878848;29;20032;-73
2020/12/27 11:42:43;;;;;;;0.63;0.57;;;1.30;99.90;;;;;;4878559;29;20029;-74
2020/12/27 11:45:08;;;;;;;2.78;0.90;;;1.30;99.90;;;;;;4878469;29;20123;-74
2020/12/27 11:47:36;;;;;;;0.65;0.65;;;1.30;99.90;;;;;;4878486;29;20112;-74
2020/12/27 11:50:03;;;;;;;0.70;0.70;;;1.30;99.90;;;;;;4878485;29;20033;-74
2020/12/27 11:52:29;;;;;;;0.70;0.70;;;1.30;99.90;;;;;;4878523;29;20049;-75
2020/12/27 11:54:55;;;;;;;0.70;0.70;;;1.30;99.90;;;;;;4878426;29;20126;-76
2020/12/27 11:57:20;;;;;;;3.88;0.98;;;1.30;99.90;;;;;;4878508;29;20029;-76
2020/12/27 11:59:46;;;;;;;0.95;0.80;;;1.30;99.90;;;;;;4878298;29;20021;-74
2020/12/27 12:02:12;;;;;;;0.98;0.70;;;1.30;99.90;;;;;;4878790;29;20116;-74
2020/12/27 12:04:38;;;;;;;0.70;0.65;;;1.30;99.90;;;;;;4876987;29;20438;-72
2020/12/27 12:07:04;;;;;;;0.80;0.70;;;1.30;99.90;;;;;;4878452;29;20065;-73
2020/12/27 12:09:30;;;;;;;0.70;0.70;;;1.30;99.90;;;;;;4878879;29;20369;-75
2020/12/27 12:11:55;;;;;;;0.70;0.70;;;1.40;99.90;;;;;;4878407;29;20418;-77
2020/12/27 12:14:21;;;;;;;0.60;0.60;;;1.40;99.90;;;;;;4878407;29;20064;-76
2020/12/27 12:16:47;;;;;;;0.63;0.60;;;1.40;99.90;;;;;;4878241;29;20025;-77
2020/12/27 12:19:13;;;;;;;0.52;0.52;;;1.40;99.90;;;;;;4878186;29;20065;-76
2020/12/27 12:21:38;;;;;;;0.68;0.68;;;1.40;99.90;;;;;;4878462;29;20057;-76
2020/12/27 12:24:04;;;;;;;0.65;0.65;;;1.40;99.90;;;;;;4878001;29;20044;-77
2020/12/27 12:26:31;;;;;;;0.63;0.60;;;1.40;99.90;;;;;;4877894;29;20063;-75
2020/12/27 12:28:59;;;;;;;0.95;0.73;;;1.40;99.90;;;;;;4878002;29;20032;-76
2020/12/27 12:31:26;;;;;;;1.48;0.60;;;1.40;99.90;;;;;;4878178;29;20029;-75
2020/12/27 12:33:52;;;;;;;0.70;0.70;;;1.40;99.90;;;;;;4877995;29;20029;-75
2020/12/27 12:36:20;;;;;;;1.25;0.85;;;1.40;99.90;;;;;;4876848;29;20385;-75
2020/12/27 12:38:46;;;;;;;0.60;0.60;;;1.40;99.90;;;;;;4878145;29;20573;-75
2020/12/27 12:41:15;;;;;;;1.52;0.60;;;1.40;99.90;;;;;;4878085;29;20180;-75
2020/12/27 12:43:42;;;;;;;0.95;0.65;;;1.50;99.90;;;;;;4878011;29;20033;-75
2020/12/27 12:46:09;;;;;;;0.93;0.70;;;1.50;99.90;;;;;;4879499;29;20036;-75
2020/12/27 12:48:35;;;;;;;1.40;0.80;;;1.50;99.90;;;;;;4881725;29;20028;-75
2020/12/27 12:51:02;;;;;;;0.73;0.73;;;1.50;99.90;;;;;;4881674;29;20032;-72
2020/12/27 12:53:28;;;;;;;0.60;0.60;;;1.50;99.90;;;;;;4881728;29;20040;-73
2020/12/27 12:55:53;;;;;;;1.10;0.60;;;1.50;99.90;;;;;;4881445;29;20032;-72
2020/12/27 12:58:19;;;;;;;0.70;0.70;;;1.50;99.90;;;;;;4881470;29;20033;-72
2020/12/27 13:00:45;;;;;;;1.45;0.73;;;1.60;99.90;;;;;;4878848;29;20122;-72
2020/12/27 13:03:11;;;;;;;1.70;0.68;;;1.60;99.90;;;;;;4877994;29;20028;-72
2020/12/27 13:05:37;;;;;;;2.25;0.80;;;1.60;99.90;;;;;;4881408;29;20025;-72
2020/12/27 13:08:05;;;;;;;0.85;0.70;;;1.70;99.90;;;;;;4881508;29;20035;-72
2020/12/27 13:10:36;;;;;;;0.70;0.70;;;2.80;99.90;;;;;;4881567;29;20077;-72
2020/12/27 13:13:02;;;;;;;2.00;0.70;;;2.60;99.90;;;;;;4881097;29;20488;-71
2020/12/27 13:15:28;;;;;;;1.42;0.60;;;2.40;99.90;;;;;;4880156;29;20093;-73
2020/12/27 13:17:54;;;;;;;0.60;0.60;;;2.30;99.90;;;;;;4880896;29;20029;-74
2020/12/27 13:20:20;;;;;;;1.65;0.70;;;2.20;99.90;;;;;;4879978;29;20053;-75
2020/12/27 13:22:46;;;;;;;0.85;0.47;;;2.10;99.90;;;;;;4879840;29;20033;-75
2020/12/27 13:25:12;;;;;;;0.60;0.60;;;2.00;99.90;;;;;;4879748;29;20037;-72
2020/12/27 13:27:42;;;;;;;2.20;0.77;;;2.00;99.90;;;;;;4879778;29;20027;-74
2020/12/27 13:30:09;;;;;;;1.25;0.60;;;2.10;99.90;;;;;;4879672;29;20048;-74
2020/12/27 13:32:35;;;;;;;1.00;0.77;;;2.00;99.90;;;;;;4878609;29;20100;-74
2020/12/27 13:35:00;;;;;;;1.10;0.77;;;2.00;99.90;;;;;;4879909;29;20060;-73
2020/12/27 13:37:28;;;;;;;1.63;0.60;;;1.90;99.90;;;;;;4879981;29;20540;-74
2020/12/27 13:39:53;;;;;;;0.85;0.63;;;1.90;99.90;;;;;;4879589;29;20037;-73
2020/12/27 13:42:19;;;;;;;1.25;0.70;;;2.00;99.90;;;;;;4879575;29;20033;-70
2020/12/27 13:44:45;;;;;;;2.40;1.13;;;2.00;99.90;;;;;;4879534;29;20519;-70
2020/12/27 13:47:11;;;;;;;0.77;0.77;;;2.00;99.90;;;;;;4879341;29;20711;-76
2020/12/27 13:49:36;;;;;;;1.08;0.60;;;2.00;99.90;;;;;;4880550;29;20162;-72
2020/12/27 13:52:02;;;;;;;1.95;0.90;;;2.00;99.90;;;;;;4878915;29;20029;-72
2020/12/27 13:54:28;;;;;;;0.90;0.60;;;2.00;99.90;;;;;;4879261;29;20064;-72
2020/12/27 13:56:56;;;;;;;0.50;0.50;;;2.00;99.90;;;;;;4878775;29;20469;-73
2020/12/27 13:59:21;;;;;;;1.52;0.98;;;2.00;99.90;;;;;;4879136;29;20036;-72
2020/12/27 14:01:48;;;;;;;0.77;0.77;;;2.00;99.90;;;;;;4879194;29;20385;-72
2020/12/27 14:04:15;;;;;;;1.73;0.80;;;2.00;99.90;;;;;;4879012;29;20040;-72
2020/12/27 14:06:41;;;;;;;1.42;0.73;;;2.10;99.90;;;;;;4878692;29;20501;-71
2020/12/27 14:09:07;;;;;;;3.45;0.60;;;2.10;99.90;;;;;;4878645;29;20487;-71
2020/12/27 14:11:33;;;;;;;0.63;0.60;;;2.10;99.90;;;;;;4879115;29;20108;-71
2020/12/27 14:13:59;;;;;;;1.42;0.70;;;2.10;99.90;;;;;;4878643;29;20068;-71
2020/12/27 14:16:25;;;;;;;0.70;0.70;;;2.10;99.90;;;;;;4879081;29;20045;-72
2020/12/27 14:18:50;;;;;;;1.38;0.68;;;2.20;99.90;;;;;;4855393;29;685557;-72
2020/12/27 14:21:18;;;;;;;3.40;1.00;;;2.20;99.90;;;;;;4879871;29;20479;-74
2020/12/27 14:23:45;;;;;;;3.08;0.82;;;2.20;99.90;;;;;;4877195;29;20055;-73
2020/12/27 14:26:11;;;;;;;2.60;0.82;;;2.20;99.90;;;;;;4879291;29;20021;-74
2020/12/27 14:28:37;;;;;;;0.70;0.70;;;2.20;99.90;;;;;;4879723;29;20029;-72
2020/12/27 14:31:06;;;;;;;0.82;0.70;;;2.20;99.90;;;;;;4879576;29;20470;-72
2020/12/27 14:33:32;;;;;;;2.20;0.87;;;2.30;99.90;;;;;;4879315;29;20029;-73
2020/12/27 14:36:02;;;;;;;1.73;0.80;;;2.30;99.90;;;;;;4879335;29;20048;-74
2020/12/27 14:38:28;;;;;;;1.00;0.80;;;2.30;99.90;;;;;;4879966;29;20453;-76
2020/12/27 14:40:54;;;;;;;1.48;0.70;;;2.30;99.90;;;;;;4878648;29;20052;-77
2020/12/27 14:43:20;;;;;;;0.57;0.57;;;2.30;99.90;;;;;;4882101;29;20930;-76
2020/12/27 14:45:46;;;;;;;0.85;0.70;;;2.30;99.90;;;;;;4879481;29;20465;-77
2020/12/27 14:48:11;;;;;;;1.58;0.90;;;2.30;99.90;;;;;;4863171;29;20108;-76
2020/12/27 14:50:37;;;;;;;1.17;0.90;;;2.40;99.90;;;;;;4876489;29;20037;-76
2020/12/27 14:53:04;;;;;;;1.52;0.70;;;2.40;99.90;;;;;;4879307;29;20366;-76
2020/12/27 14:55:30;;;;;;;2.70;0.80;;;2.40;99.90;;;;;;4878512;29;20045;-77
2020/12/27 14:57:56;;;;;;;0.90;0.80;;;2.40;99.90;;;;;;4878835;29;20069;-76
2020/12/27 15:00:21;;;;;;;1.48;0.80;;;2.40;99.90;;;;;;4878701;29;20108;-73
2020/12/27 15:02:49;;;;;;;0.70;0.70;;;2.40;99.90;;;;;;4879224;29;20093;-73
2020/12/27 15:05:15;;;;;;;0.60;0.60;;;2.40;99.90;;;;;;4877470;29;20037;-74
2020/12/27 15:07:41;;;;;;;2.80;0.88;;;2.40;99.90;;;;;;4878524;29;20039;-75
2020/12/27 15:10:06;;;;;;;3.10;0.98;;;2.40;99.90;;;;;;4878259;29;20033;-75
2020/12/27 15:12:33;;;;;;;3.95;1.00;;;2.50;99.90;;;;;;4878534;29;20097;-75
2020/12/27 15:14:59;;;;;;;0.80;0.80;;;2.50;99.90;;;;;;4878732;29;20393;-76
2020/12/27 15:17:25;;;;;;;0.75;0.75;;;2.50;99.90;;;;;;4878840;29;20083;-75
2020/12/27 15:19:51;;;;;;;2.60;0.82;;;2.50;99.90;;;;;;4877154;29;20513;-75
2020/12/27 15:22:17;;;;;;;3.25;1.10;;;2.50;99.90;;;;;;4878703;29;20037;-72
2020/12/27 15:24:43;;;;;;;1.60;0.90;;;2.50;99.90;;;;;;4878825;29;20049;-73
2020/12/27 15:27:08;;;;;;;1.63;0.85;;;2.50;99.90;;;;;;4878890;29;20040;-73
2020/12/27 15:29:34;;;;;;;0.68;0.68;;;2.50;99.90;;;;;;4881032;29;20029;-76
2020/12/27 15:32:00;;;;;;;0.75;0.70;;;2.50;99.90;;;;;;4879987;29;20044;-75
2020/12/27 15:34:25;;;;;;;0.80;0.70;;;2.50;99.90;;;;;;4878773;29;20029;-75
2020/12/27 15:36:51;;;;;;;0.80;0.80;;;2.50;99.90;;;;;;4878707;29;20169;-75
2020/12/27 15:39:17;;;;;;;1.42;0.82;;;2.50;99.90;;;;;;4878442;29;20040;-76
2020/12/27 15:41:43;;;;;;;0.70;0.70;;;2.50;99.90;;;;;;4878298;29;20029;-76
2020/12/27 15:44:09;;;;;;;1.10;0.80;;;2.50;99.90;;;;;;4878348;29;20104;-76
2020/12/27 15:46:35;;;;;;;1.35;0.70;;;2.50;99.90;;;;;;4878663;29;20036;-76
2020/12/27 15:49:00;;;;;;;2.58;0.82;;;2.50;99.90;;;;;;4878898;29;20032;-76
2020/12/27 15:51:26;;;;;;;1.13;0.70;;;2.50;99.90;;;;;;4882645;29;20036;-75
2020/12/27 15:53:54;;;;;;;0.90;0.90;;;2.50;99.90;;;;;;4896900;29;20043;-75
2020/12/27 15:56:24;;;;;;;2.60;0.90;;;2.50;99.90;;;;;;4896583;29;20032;-75
2020/12/27 15:58:53;;;;;;;0.80;0.80;;;2.50;99.90;;;;;;4883279;29;20125;-76
2020/12/27 16:01:19;;;;;;;1.85;0.82;;;2.60;99.90;;;;;;4878253;29;20041;-75
2020/12/27 16:03:44;;;;;;;0.82;0.80;;;2.50;99.90;;;;;;4878014;29;20370;-70
2020/12/27 16:06:12;;;;;;;1.42;0.60;;;2.50;99.90;;;;;;4877843;29;20063;-70
2020/12/27 16:08:38;;;;;;;1.30;1.02;;;2.50;99.90;;;;;;4877838;29;20029;-75
2020/12/27 16:11:03;;;;;;;1.25;0.73;;;2.60;99.90;;;;;;4878029;29;20036;-74
2020/12/27 16:13:31;;;;;;;1.33;0.60;;;2.50;99.90;;;;;;4877890;29;20431;-73
2020/12/27 16:15:57;;;;;;;1.63;0.70;;;2.50;99.90;;;;;;4877667;29;20033;-71
2020/12/27 16:18:28;;;;;;;0.70;0.70;;;2.50;99.90;;;;;;4877843;29;20397;-71
2020/12/27 16:20:55;;;;;;;1.05;0.73;;;2.50;99.90;;;;;;4880670;29;20061;-70
2020/12/27 16:23:21;;;;;;;1.63;0.80;;;2.50;99.90;;;;;;4881945;29;20074;-69
2020/12/27 16:25:47;;;;;;;3.95;0.90;;;2.40;99.90;;;;;;4881484;29;20033;-69
2020/12/27 16:28:13;;;;;;;2.97;0.65;;;2.50;99.90;;;;;;4881718;29;20033;-70
2020/12/27 16:30:39;;;;;;;1.35;0.88;;;2.60;99.90;;;;;;4880409;29;20044;-69
2020/12/27 16:33:04;;;;;;;1.15;0.90;;;2.60;99.90;;;;;;4881731;29;20111;-70
2020/12/27 16:35:30;;;;;;;2.40;0.80;;;2.60;99.90;;;;;;4881528;29;20492;-69
2020/12/27 16:37:56;;;;;;;0.70;0.70;;;2.50;99.90;;;;;;4881874;29;20385;-69
2020/12/27 16:40:22;;;;;;;0.80;0.73;;;2.60;99.90;;;;;;4881223;29;20104;-69
2020/12/27 16:42:47;;;;;;;1.42;0.88;;;2.60;99.90;;;;;;4881463;29;20041;-69
2020/12/27 16:45:13;;;;;;;1.50;0.70;;;2.60;99.90;;;;;;4881323;29;20039;-69
2020/12/27 16:47:40;;;;;;;0.88;0.85;;;2.60;99.90;;;;;;4880957;29;20497;-70
2020/12/27 16:50:06;;;;;;;1.27;0.70;;;2.60;99.90;;;;;;4881006;29;20037;-70
2020/12/27 16:52:32;;;;;;;2.28;0.90;;;2.60;99.90;;;;;;4881405;29;20044;-70
2020/12/27 16:54:59;;;;;;;1.20;0.88;;;2.60;99.90;;;;;;4881521;29;20021;-70
2020/12/27 16:57:24;;;;;;;0.65;0.65;;;2.60;99.90;;;;;;4881383;29;20033;-71
2020/12/27 16:59:50;;;;;;;1.65;0.88;;;2.70;99.90;;;;;;4881590;29;20036;-71
2020/12/27 17:02:16;;;;;;;0.70;0.60;;;2.70;99.90;;;;;;4881417;29;20120;-71
2020/12/27 17:04:41;;;;;;;1.00;0.90;;;2.60;99.90;;;;;;4881554;29;20047;-71
2020/12/27 17:07:07;;;;;;;1.40;0.70;;;2.60;99.90;;;;;;4881583;29;20025;-71
2020/12/27 17:09:33;;;;;;;2.17;0.73;;;2.60;99.90;;;;;;4881352;29;20233;-70
2020/12/27 17:12:01;;;;;;;2.38;0.80;;;2.60;99.90;;;;;;4881361;29;20035;-71
2020/12/27 17:14:28;;;;;;;0.95;0.70;;;2.60;99.90;;;;;;4881496;29;20036;-70
2020/12/27 17:16:54;;;;;;;1.13;0.90;;;2.60;99.90;;;;;;4881099;29;20032;-71
2020/12/27 17:19:20;;;;;;;3.15;0.90;;;2.60;99.90;;;;;;4880951;29;20517;-70
2020/12/27 17:21:47;;;;;;;0.90;0.70;;;2.60;99.90;;;;;;4879365;29;20446;-71
2020/12/27 17:24:12;;;;;;;1.85;0.75;;;2.70;99.90;;;;;;4871080;29;20085;-70
2020/12/27 17:26:38;;;;;;;2.40;0.95;;;2.70;99.90;;;;;;4874620;29;20033;-70
2020/12/27 17:29:06;;;;;;;0.93;0.80;;;2.70;99.90;;;;;;4880113;29;20080;-71
2020/12/27 17:31:33;;;;;;;0.93;0.80;;;2.70;99.90;;;;;;4879830;29;20029;-70
2020/12/27 17:33:58;;;;;;;2.50;1.08;;;2.60;99.90;;;;;;4880017;29;20048;-70
2020/12/27 17:36:29;;;;;;;1.08;0.90;;;2.60;99.90;;;;;;4880422;29;20485;-70
2020/12/27 17:38:55;;;;;;;2.03;0.80;;;2.60;99.90;;;;;;4880466;29;20536;-70
2020/12/27 17:41:35;;;;;;;1.38;0.90;;;2.60;99.90;;;;;;4864443;29;20040;-70
2020/12/27 17:44:02;;;;;;;4.83;1.03;;;2.60;99.90;;;;;;4862186;29;20128;-70
2020/12/27 17:46:28;;;;;;;2.20;1.00;;;2.60;99.90;;;;;;4862181;29;20392;-70
2020/12/27 17:48:54;;;;;;;1.27;0.80;;;2.60;99.90;;;;;;4862364;29;20037;-69
2020/12/27 17:51:20;;;;;;;0.90;0.77;;;2.60;99.90;;;;;;4862115;29;20108;-71
2020/12/27 17:53:46;;;;;;;2.10;1.00;;;2.70;99.90;;;;;;4862036;29;20489;-72
2020/12/27 17:56:19;;;;;;;1.25;1.00;;;2.60;99.90;;;;;;4878332;29;20129;-71
2020/12/27 17:58:46;;;;;;;1.27;0.80;;;2.60;99.90;;;;;;4880767;29;20462;-73
2020/12/27 18:01:19;;;;;;;2.00;1.00;;;2.70;99.90;;;;;;4880492;29;20093;-73
2020/12/27 18:03:45;;;;;;;1.10;1.00;;;2.70;99.90;;;;;;4880367;29;20044;-73
2020/12/27 18:06:11;;;;;;;2.20;1.00;;;2.70;99.90;;;;;;4880212;29;20055;-72
2020/12/27 18:08:37;;;;;;;1.48;0.90;;;2.70;99.90;;;;;;4880291;29;20577;-72
2020/12/27 18:11:02;;;;;;;3.92;1.10;;;2.70;99.90;;;;;;4880122;29;20031;-72
2020/12/27 18:13:28;;;;;;;2.13;1.10;;;2.70;99.90;;;;;;4880266;29;20080;-72
2020/12/27 18:15:54;;;;;;;1.10;0.80;;;2.70;99.90;;;;;;4880472;29;20493;-72
2020/12/27 18:18:20;;;;;;;1.05;0.80;;;2.70;99.90;;;;;;4879756;29;20059;-72
2020/12/27 18:20:45;;;;;;;1.92;1.05;;;2.70;99.90;;;;;;4880438;29;20025;-72